Laguna Niguel, CA (92677)

5:08 PM PDT on September 16, 2014 (GMT -0700)
El Niguel Heights | Change Station
CLOSE
Current Station
Personal Weather Station
Location: Laguna Niguel, CA
Elevation: 470 ft
Nearby Weather Stations

Elev 470 ft 33.51 °N, 117.71 °W | Updated 2 minutes ago

Partly Cloudy
Partly Cloudy
92.1 °F
Feels Like 99 °F
N
3.0
Wind Variable Wind from SSW
Gusts 3.0 mph

Today
High -- | Low -- °F
--% Chance of Precip.
Yesterday
High -- | Low -- °F
Precip. -- in
6:35 AM 6:55 PM
Last Quarter, 41% visible
Pressure 29.69 in
Visibility 10.0 miles
Clouds Few 4500 ft
Scattered Clouds 12000 ft
Scattered Clouds 18000 ft
Heat Index 99 °F
Dew Point 71 °F
Humidity 51%
Rainfall 0.00 in
Snow Depth 0 in , 0 in , 0 in
UV 0.0 out of 12
Pollen 6.80 out of 12
Ozone Moderate
Flu Activity Not available.
METAR KSNA 162353Z COR 20006KT 10SM FEW045 SCT120 SCT180 37/14 A2969 RMK AO2 SLP052 CB DSNT NW-N AND NE-E T03720144 10378 20306 56007

More Conditions Fewer Conditions

Pressure 29.69 in
Visibility 10.0 miles
Clouds Few 4500 ft
Scattered Clouds 12000 ft
Scattered Clouds 18000 ft
Heat Index 99 °F
Dew Point 71 °F
Humidity 51%
Rainfall 0.00 in
Snow Depth 0 in , 0 in , 0 in
UV 0.0 out of 12
Pollen 6.80 out of 12
Ozone Moderate
Flu Activity Not available.
METAR KSNA 162353Z COR 20006KT 10SM FEW045 SCT120 SCT180 37/14 A2969 RMK AO2 SLP052 CB DSNT NW-N AND NE-E T03720144 10378 20306 56007

More Conditions Fewer Conditions

10-Day Weather Forecast

Almanac

Astronomy

Sep. 16, 2014 Rise Set
Actual Time 6:35 AM PDT 6:55 PM PDT
Civil Twilight 6:10 AM PDT 7:20 PM PDT
Nautical Twilight 5:40 AM PDT 7:49 PM PDT
Astronomical Twilight 5:11 AM PDT 8:19 PM PDT
Moon 12:01 AM PDT (9/16) 2:10 PM PDT (9/16)
Length of Visible Light 13h 10m
Length of Day
12h 20m
Tomorrow will be 2m 3s shorter.
Last Quarter, 41% of the Moon is Illuminated
Today
Last Quarter
Sep 24
New
Oct 1
First Quarter
Oct 8
Full
Oct 15
Last Quarter

Today's Extremes

State Highs State Lows

Community

WunderPhotos

Upload Photos

1,753,919 photos uploaded!

Nearby

Air Quality

  Air Quality AQ Index Pollutant
Yesterday Moderate
OZONE
Current Moderate
OZONE
Wednesday Good
PM10
Wednesday Good
OZONE
Wednesday Good
CO
Wednesday Good
NO2

Snow Depth

Station Depth Elevation
CSS Lab 0 in 6900 ft
Leavitt Meadows 0 in 7200 ft
Echo Peak 0 in 7800 ft
Adin Mountain 0 in 6200 ft

Earthquake Activity

City Distance Mag. Time & Date
La Quinta, California 72 miles 2.7 8:59 PM PDT
2014-09-15
San Jacinto, California 47 miles 3.0 3:16 PM PDT
2014-09-14
Minimum magnitude displayed is 2.5.

Coastal Water Temperatures

Place Temperature
Santa Monica Pier 71.1 °F
Los Angeles, CA 68.0 °F
La Jolla, CA 69.1 °F

Nearby Weather Stations